Farmington, NH

4:07 AM EST on February 20, 2017 (GMT -0500)
MGELN3 | | Change Station
Active Advisory: Small Craft Advisory

Elev 583 ft 43.57 °N, 70.97 °W | Updated 13 hours ago

Clear
Clear
52.0 °F
Feels Like 52.0 °F
N
-
Wind Variable Wind from North

Today
High -- | Low -- °F
--% Chance of Precip.
Yesterday
High -- | Low -- °F
Precip. -- in
Pressure 29.96 in
Visibility 10.0 miles
Clouds Clear
Dew Point --
Humidity 100%
Rainfall 0.00 in
Snow Depth Not available.
6:34 AM 5:21 PM
Waning Crescent, 35% visible
METAR KDAW 200851Z AUTO 32007KT 10SM CLR 03/M05 A2996 RMK AO2 SLP143 T00281050 53018
Pressure 29.96 in
Visibility 10.0 miles
Clouds Clear
Dew Point --
Humidity 100%
Rainfall 0.00 in
Snow Depth Not available.
6:34 AM 5:21 PM
Waning Crescent, 35% visible
METAR KDAW 200851Z AUTO 32007KT 10SM CLR 03/M05 A2996 RMK AO2 SLP143 T00281050 53018

Get Your Daily Forecast Email!

Thanks for signing up!

Be on the lookout for a verification email in your inbox.

You'll start receiving the daily forecast at 8 AM.

×

10-Day Weather Forecast

Almanac

Astronomy

Feb. 20, 2017 Rise Set
Actual Time
Civil Twilight
Nautical Twilight
Astronomical Twilight
Moon
Length of Visible Light
Length of Day
Tomorrow will be .
, % of the Moon is Illuminated

Today's Extremes

State Highs State Lows

Community

WunderPhotos

Upload Photos

1,962,540 photos uploaded!

WunderBlog® & News

Nearby

Air Quality

  Air Quality AQ Index Pollutant
Not available.

Snow Depth

Station Depth Elevation

Earthquake Activity

City Distance Mag. Time & Date
Minimum magnitude displayed is 2.5.

Coastal Water Temperatures

Place Temperature

Stations

Nearby Weather Stations

Station Location Temp. Windchill Dew Point Humidity Wind Precip. Elev Updated Type
                   

Watches & Warnings

Small Craft Advisory
Issued: 2:51 AM EST Feb. 20, 2017 – National Weather Service

... Small Craft Advisory remains in effect until 7 PM EST this
evening...

* winds... north 10 to 20 kt with gusts up to 30 kt.

* Seas... 2 to 4 feet.

Precautionary/preparedness actions...

A Small Craft Advisory means that wind speeds of 25 to 33 knots
are expected to produce hazardous wave conditions to small craft.
Inexperienced mariners... especially those operating smaller
vessels should avoid navigating in these conditions.